Time;durP1;ratioP1;P1;durP2;ratioP2;P2;SDS_P1;SDS_P2;PMS_P1;PMS_P2;Temp;Humidity;BMP_temperature;BMP_pressure;BME280_temperature;BME280_humidity;BME280_pressure;Samples;Min_cycle;Max_cycle;Signal;HPM_P1;HPM_P2
2022/05/21 00:02:00;;;;;;;16.73;6.70;;;11.20;99.90;;;;;;5008115;28;20136;-53
2022/05/21 00:04:26;;;;;;;12.32;5.85;;;11.20;99.90;;;;;;5008430;28;20111;-57
2022/05/21 00:06:51;;;;;;;13.70;5.95;;;11.20;99.90;;;;;;4988426;28;20062;-48
2022/05/21 00:09:20;;;;;;;12.13;6.13;;;11.20;99.90;;;;;;4988637;28;20073;-51
2022/05/21 00:11:46;;;;;;;12.23;6.47;;;11.20;99.90;;;;;;4989941;28;20042;-52
2022/05/21 00:14:12;;;;;;;11.57;6.18;;;11.20;99.90;;;;;;5007806;28;20046;-51
2022/05/21 00:16:38;;;;;;;15.23;7.47;;;11.30;99.90;;;;;;5009046;28;20029;-53
2022/05/21 00:19:04;;;;;;;17.20;8.00;;;11.30;99.90;;;;;;5006492;28;20049;-53
2022/05/21 00:21:30;;;;;;;13.68;8.18;;;11.30;99.90;;;;;;5006568;28;20173;-54
2022/05/21 00:23:56;;;;;;;16.10;8.52;;;11.30;99.90;;;;;;5007635;28;20042;-53
2022/05/21 00:26:21;;;;;;;18.13;10.30;;;11.30;99.90;;;;;;5010648;28;20080;-54
2022/05/21 00:28:49;;;;;;;20.98;10.55;;;11.30;99.90;;;;;;5006244;28;20033;-52
2022/05/21 00:31:16;;;;;;;17.35;9.38;;;11.30;99.90;;;;;;5006501;28;20077;-56
2022/05/21 00:33:43;;;;;;;17.92;9.77;;;11.30;99.90;;;;;;5007984;28;20052;-47
2022/05/21 00:36:09;;;;;;;19.50;10.55;;;11.30;99.90;;;;;;5008013;28;20060;-54
2022/05/21 00:38:36;;;;;;;15.45;9.43;;;11.30;99.90;;;;;;5003487;28;20049;-54
2022/05/21 00:41:03;;;;;;;18.55;10.63;;;11.40;99.90;;;;;;5008940;28;20042;-52
2022/05/21 00:43:39;;;;;;;19.27;10.48;;;11.40;99.90;;;;;;5007512;28;20124;-53
2022/05/21 00:46:27;;;;;;;18.13;10.15;;;11.40;99.90;;;;;;5005388;28;20068;-53
2022/05/21 00:49:10;;;;;;;17.98;9.77;;;11.40;99.90;;;;;;4997758;28;20081;-53
2022/05/21 00:51:41;;;;;;;;;;;11.40;99.90;;;;;;5008186;28;20026;-54
2022/05/21 00:54:09;;;;;;;16.95;9.02;;;11.40;99.90;;;;;;5005143;28;19917;-51
2022/05/21 00:56:42;;;;;;;17.98;10.50;;;11.40;99.90;;;;;;5008512;28;20041;-54
2022/05/21 01:01:56;;;;;;;13.57;8.68;;;11.50;99.90;;;;;;5005285;28;20050;-54
2022/05/21 01:04:22;;;;;;;19.15;9.60;;;11.50;99.90;;;;;;5004618;28;20117;-46
2022/05/21 01:06:48;;;;;;;16.90;9.13;;;11.60;99.90;;;;;;5006000;28;20060;-49
2022/05/21 01:09:14;;;;;;;19.48;10.43;;;11.60;99.90;;;;;;5009016;28;20125;-52
2022/05/21 01:11:40;;;;;;;20.90;10.90;;;11.70;99.90;;;;;;4989420;28;20133;-52
2022/05/21 01:14:10;;;;;;;19.85;10.57;;;11.70;99.90;;;;;;5003013;28;20463;-49
2022/05/21 01:16:36;;;;;;;15.15;9.55;;;11.70;99.90;;;;;;5006654;28;20053;-53
2022/05/21 01:19:09;;;;;;;22.83;10.05;;;11.70;99.90;;;;;;5006676;28;20352;-51
2022/05/21 01:21:37;;;;;;;16.85;10.65;;;11.80;99.90;;;;;;5005487;28;20100;-52
2022/05/21 01:24:07;;;;;;;18.73;10.63;;;11.80;99.90;;;;;;5007804;28;20117;-49
2022/05/21 01:26:34;;;;;;;17.73;10.68;;;11.80;99.90;;;;;;5007003;28;20475;-52
2022/05/21 01:29:04;;;;;;;16.30;11.32;;;11.80;99.90;;;;;;5007833;28;20449;-53
2022/05/21 01:31:32;;;;;;;22.70;11.13;;;11.80;99.90;;;;;;5003109;28;20045;-52
2022/05/21 01:33:59;;;;;;;23.63;11.57;;;11.80;99.90;;;;;;5003505;28;20166;-51
2022/05/21 01:36:24;;;;;;;21.20;11.15;;;11.80;99.90;;;;;;5005031;28;20495;-53
2022/05/21 01:38:50;;;;;;;21.83;12.13;;;11.80;99.90;;;;;;5007547;28;20046;-53
2022/05/21 01:41:16;;;;;;;22.02;11.77;;;11.90;99.90;;;;;;5007304;28;20073;-54
2022/05/21 01:46:27;;;;;;;20.65;11.95;;;11.90;99.90;;;;;;5004831;28;20125;-53
2022/05/21 01:48:53;;;;;;;16.92;10.85;;;11.90;99.90;;;;;;5007746;28;20399;-54
2022/05/21 01:51:20;;;;;;;20.27;11.48;;;11.90;99.90;;;;;;5005486;28;20037;-53
2022/05/21 01:53:46;;;;;;;21.67;12.60;;;12.00;99.90;;;;;;5004351;28;20371;-53
2022/05/21 01:56:12;;;;;;;24.90;12.70;;;12.00;99.90;;;;;;5004934;28;20400;-54
2022/05/21 01:58:39;;;;;;;22.02;12.48;;;12.00;99.90;;;;;;5003143;28;20168;-52
2022/05/21 02:01:06;;;;;;;22.40;11.95;;;12.00;99.90;;;;;;5005324;28;20045;-57
2022/05/21 02:03:32;;;;;;;18.95;12.10;;;12.00;99.90;;;;;;4987255;28;20034;-50
2022/05/21 02:05:58;;;;;;;18.67;11.10;;;12.00;99.90;;;;;;4989772;28;20045;-51
2022/05/21 02:08:24;;;;;;;19.52;12.23;;;12.10;99.90;;;;;;5005525;28;20036;-54
2022/05/21 02:10:51;;;;;;;17.90;12.15;;;12.10;99.90;;;;;;5006729;28;20035;-53
2022/05/21 02:13:25;;;;;;;22.77;12.88;;;12.10;99.90;;;;;;5005214;28;20038;-53
2022/05/21 02:15:51;;;;;;;25.38;13.15;;;12.20;99.90;;;;;;4989060;28;20553;-56
2022/05/21 02:18:17;;;;;;;20.38;13.05;;;12.20;99.90;;;;;;5004233;28;20133;-55
2022/05/21 02:20:45;;;;;;;18.52;11.23;;;12.20;99.90;;;;;;5005865;28;20092;-49
2022/05/21 02:23:11;;;;;;;18.83;11.98;;;12.20;99.90;;;;;;5006153;28;20490;-52
2022/05/21 02:25:37;;;;;;;19.88;11.60;;;12.30;99.90;;;;;;5003245;28;20042;-53
2022/05/21 02:28:03;;;;;;;19.13;10.63;;;12.30;99.90;;;;;;5003853;28;20121;-49
2022/05/21 02:30:29;;;;;;;20.65;10.50;;;12.30;99.90;;;;;;4998710;28;20483;-53
2022/05/21 02:32:55;;;;;;;18.63;10.13;;;12.40;99.90;;;;;;5006418;28;20050;-52
2022/05/21 02:35:20;;;;;;;19.98;10.35;;;12.40;99.90;;;;;;5007173;28;20053;-57
2022/05/21 02:40:31;;;;;;;19.30;8.57;;;12.40;99.90;;;;;;5003365;28;20117;-53
2022/05/21 02:42:56;;;;;;;21.70;9.25;;;12.50;99.90;;;;;;5007215;28;20096;-53
2022/05/21 02:45:25;;;;;;;16.85;8.88;;;12.50;99.90;;;;;;5006327;28;20076;-52
2022/05/21 02:47:51;;;;;;;18.90;8.82;;;12.50;99.90;;;;;;5006635;28;20034;-54
2022/05/21 02:50:22;;;;;;;17.85;9.48;;;12.50;99.90;;;;;;4986928;28;20038;-51
2022/05/21 02:52:47;;;;;;;15.93;8.30;;;12.60;99.90;;;;;;5005151;28;20498;-54
2022/05/21 02:55:14;;;;;;;18.17;7.60;;;12.50;99.90;;;;;;5002950;28;20045;-52
2022/05/21 02:57:41;;;;;;;19.10;7.35;;;12.60;99.90;;;;;;5005227;28;20037;-52
2022/05/21 03:00:11;;;;;;;15.05;7.35;;;12.60;99.90;;;;;;5002511;28;20045;-55
2022/05/21 03:02:37;;;;;;;15.07;7.00;;;12.60;99.90;;;;;;5004717;28;20422;-53
2022/05/21 03:05:03;;;;;;;13.82;6.90;;;12.70;99.90;;;;;;5004699;28;20097;-52
2022/05/21 03:07:30;;;;;;;16.90;6.57;;;12.70;99.90;;;;;;5005544;28;20073;-53
2022/05/21 03:12:40;;;;;;;11.70;4.30;;;12.70;99.90;;;;;;5005134;28;20057;-52
2022/05/21 03:15:07;;;;;;;16.25;5.80;;;12.70;99.90;;;;;;4988172;28;20045;-52
2022/05/21 03:17:32;;;;;;;13.10;5.60;;;12.70;99.90;;;;;;5005385;28;20395;-50
2022/05/21 03:19:58;;;;;;;15.48;4.78;;;12.70;99.90;;;;;;5002948;28;20041;-54
2022/05/21 03:22:24;;;;;;;13.88;4.38;;;12.70;99.90;;;;;;4987728;28;20136;-50
2022/05/21 03:24:49;;;;;;;18.02;4.28;;;12.80;99.90;;;;;;5005142;28;20077;-51
2022/05/21 03:27:15;;;;;;;12.57;4.82;;;12.80;99.90;;;;;;5003949;28;20363;-49
2022/05/21 03:29:41;;;;;;;12.38;3.88;;;12.80;99.90;;;;;;5002261;28;20133;-53
2022/05/21 03:32:07;;;;;;;12.68;4.32;;;12.80;99.90;;;;;;5004385;28;20085;-51
2022/05/21 03:34:34;;;;;;;15.35;4.82;;;12.80;99.90;;;;;;5002603;28;20522;-53
2022/05/21 03:37:00;;;;;;;10.05;3.20;;;12.80;99.90;;;;;;5003598;28;20054;-54
2022/05/21 03:39:25;;;;;;;13.15;3.67;;;12.90;99.90;;;;;;4998355;28;20038;-53
2022/05/21 03:41:51;;;;;;;9.80;3.65;;;12.90;99.90;;;;;;5004814;28;20057;-53
2022/05/21 03:44:17;;;;;;;16.35;3.45;;;12.90;99.90;;;;;;4988258;28;20053;-53
2022/05/21 03:46:42;;;;;;;10.57;3.17;;;12.90;99.90;;;;;;5007663;28;20034;-53
2022/05/21 03:49:08;;;;;;;11.63;2.88;;;12.90;99.90;;;;;;5008918;28;20034;-52
2022/05/21 03:51:34;;;;;;;16.27;4.30;;;13.00;99.90;;;;;;5008303;28;20379;-52
2022/05/21 03:54:00;;;;;;;11.07;2.95;;;13.00;99.90;;;;;;5005613;28;20048;-53
2022/05/21 03:56:25;;;;;;;12.88;3.65;;;13.00;99.90;;;;;;5007697;28;20041;-53
2022/05/21 03:58:51;;;;;;;15.93;2.60;;;13.00;99.90;;;;;;5005759;28;20042;-53
2022/05/21 04:01:17;;;;;;;11.90;2.42;;;13.00;99.90;;;;;;4989639;28;20036;-52
2022/05/21 04:03:43;;;;;;;9.55;2.30;;;13.20;99.90;;;;;;5006090;28;20084;-53
2022/05/21 04:06:11;;;;;;;10.73;1.50;;;13.20;99.90;;;;;;5007603;28;20085;-53
2022/05/21 04:08:37;;;;;;;10.15;1.88;;;13.30;99.90;;;;;;5008399;28;20150;-53
2022/05/21 04:11:03;;;;;;;11.77;1.88;;;13.40;99.90;;;;;;5005778;28;20050;-52
2022/05/21 04:13:28;;;;;;;12.07;2.25;;;13.40;99.90;;;;;;5008051;28;20434;-53
2022/05/21 04:15:54;;;;;;;12.40;2.42;;;13.40;99.90;;;;;;5005692;28;20599;-53
2022/05/21 04:18:20;;;;;;;5.82;1.38;;;13.40;99.90;;;;;;5008160;28;20049;-53
2022/05/21 04:20:46;;;;;;;10.60;1.60;;;13.40;99.90;;;;;;5004330;28;20363;-54
2022/05/21 04:23:12;;;;;;;8.50;1.70;;;13.40;99.90;;;;;;5006728;28;20490;-53
2022/05/21 04:25:38;;;;;;;9.77;2.15;;;13.40;99.90;;;;;;5007960;28;20032;-50
2022/05/21 04:28:04;;;;;;;8.25;2.20;;;13.50;99.90;;;;;;5006389;28;20052;-51
2022/05/21 04:30:30;;;;;;;9.70;1.38;;;13.50;99.90;;;;;;4970315;28;20042;-51
2022/05/21 04:32:58;;;;;;;6.88;1.30;;;13.50;99.90;;;;;;5007799;28;20046;-55
2022/05/21 04:35:24;;;;;;;8.35;2.22;;;13.50;99.90;;;;;;5008418;28;20049;-54
2022/05/21 04:37:51;;;;;;;9.50;1.50;;;13.40;99.90;;;;;;5009959;28;20038;-48
2022/05/21 04:40:19;;;;;;;8.75;1.73;;;13.40;99.90;;;;;;5003311;28;20049;-51
2022/05/21 04:42:45;;;;;;;12.88;2.00;;;13.40;99.90;;;;;;5006771;28;20355;-52
2022/05/21 04:45:12;;;;;;;10.32;1.52;;;13.40;99.90;;;;;;5010315;28;20104;-54
2022/05/21 04:47:38;;;;;;;7.97;1.50;;;13.40;99.90;;;;;;5008356;28;20042;-52
2022/05/21 04:50:07;;;;;;;6.60;1.50;;;13.30;99.90;;;;;;5008225;28;20048;-46
2022/05/21 04:52:34;;;;;;;9.35;1.40;;;13.30;99.90;;;;;;5003892;28;20331;-51
2022/05/21 04:55:02;;;;;;;8.35;1.60;;;13.30;99.90;;;;;;5006890;28;20049;-51
2022/05/21 04:57:28;;;;;;;6.18;1.25;;;13.40;99.90;;;;;;5004614;28;20041;-52
2022/05/21 04:59:53;;;;;;;7.28;1.30;;;13.40;99.90;;;;;;5004887;28;20142;-51
2022/05/21 05:02:19;;;;;;;11.75;1.63;;;13.40;99.90;;;;;;5009356;28;20376;-46
2022/05/21 05:04:45;;;;;;;10.10;1.10;;;13.40;99.90;;;;;;5004422;28;20131;-53
2022/05/21 05:07:10;;;;;;;9.43;1.33;;;13.40;99.90;;;;;;5007073;28;20050;-51
2022/05/21 05:09:45;;;;;;;8.63;1.58;;;13.40;99.90;;;;;;5006444;28;20065;-52
2022/05/21 05:12:11;;;;;;;10.27;1.55;;;13.40;99.90;;;;;;4998218;28;20483;-51
2022/05/21 05:14:37;;;;;;;9.18;1.42;;;13.40;99.90;;;;;;5008353;28;20383;-51
2022/05/21 05:17:04;;;;;;;9.35;1.23;;;13.40;99.90;;;;;;5006985;28;20042;-54
2022/05/21 05:19:31;;;;;;;11.90;1.90;;;13.50;99.90;;;;;;5007423;28;20493;-54
2022/05/21 05:21:57;;;;;;;9.85;1.60;;;13.40;99.90;;;;;;5007654;28;20592;-53
2022/05/21 05:24:24;;;;;;;9.48;1.50;;;13.50;99.90;;;;;;5002820;28;20509;-48
2022/05/21 05:26:49;;;;;;;8.40;1.42;;;13.40;99.90;;;;;;4966243;28;20095;-55
2022/05/21 05:29:15;;;;;;;5.32;1.10;;;13.40;99.90;;;;;;5004898;28;20461;-53
2022/05/21 05:31:41;;;;;;;8.57;1.55;;;13.50;99.90;;;;;;5000337;28;20042;-47
2022/05/21 05:34:07;;;;;;;10.25;1.55;;;13.50;99.90;;;;;;5003585;28;20061;-53
2022/05/21 05:36:32;;;;;;;6.47;1.30;;;13.50;99.90;;;;;;5007881;28;20065;-53
2022/05/21 05:38:59;;;;;;;8.63;1.38;;;13.50;99.90;;;;;;5004208;28;20042;-52
2022/05/21 05:41:26;;;;;;;8.63;1.35;;;13.50;99.90;;;;;;5004029;28;20099;-51
2022/05/21 05:43:56;;;;;;;7.93;1.40;;;13.50;99.90;;;;;;5007691;28;20411;-51
2022/05/21 05:46:23;;;;;;;9.57;1.55;;;13.60;99.90;;;;;;5002534;28;20049;-53
2022/05/21 05:48:49;;;;;;;8.20;1.50;;;13.70;99.90;;;;;;5004058;28;20114;-53
2022/05/21 05:51:16;;;;;;;9.95;1.23;;;13.70;99.90;;;;;;4986291;28;20045;-52
2022/05/21 05:53:43;;;;;;;8.10;1.40;;;13.80;99.90;;;;;;5005542;28;20041;-55
2022/05/21 05:56:09;;;;;;;10.75;1.70;;;13.90;99.90;;;;;;5004212;28;20056;-54
2022/05/21 06:01:20;;;;;;;7.53;1.10;;;13.90;99.90;;;;;;4997494;28;20042;-54
2022/05/21 06:03:48;;;;;;;7.07;1.50;;;13.90;99.90;;;;;;4988101;28;20049;-54
2022/05/21 06:06:15;;;;;;;11.55;1.45;;;13.90;99.90;;;;;;5006101;28;20648;-54
2022/05/21 06:08:41;;;;;;;8.00;1.52;;;13.80;99.90;;;;;;5004716;28;20057;-53
2022/05/21 06:11:07;;;;;;;7.35;1.27;;;13.90;99.90;;;;;;5004164;28;20034;-53
2022/05/21 06:13:33;;;;;;;7.70;1.30;;;13.80;99.90;;;;;;5005242;28;20482;-51
2022/05/21 06:16:00;;;;;;;7.53;1.75;;;13.90;99.90;;;;;;5003108;28;20046;-54
2022/05/21 06:18:26;;;;;;;10.85;2.38;;;13.90;99.90;;;;;;5007529;28;20075;-54
2022/05/21 06:20:52;;;;;;;9.23;1.45;;;14.00;99.90;;;;;;4987747;28;20490;-55
2022/05/21 06:23:18;;;;;;;8.93;1.13;;;14.10;99.90;;;;;;5006925;28;20033;-54
2022/05/21 06:25:44;;;;;;;6.32;1.70;;;14.20;99.90;;;;;;5003935;28;20034;-51
2022/05/21 06:28:10;;;;;;;10.70;1.42;;;14.20;99.90;;;;;;5007139;28;20118;-53
2022/05/21 06:30:38;;;;;;;13.13;1.65;;;14.20;99.90;;;;;;5007200;28;20026;-52
2022/05/21 06:33:30;;;;;;;7.97;2.55;;;14.30;99.90;;;;;;5003417;28;20038;-54
2022/05/21 06:36:10;;;;;;;7.53;1.27;;;14.50;99.90;;;;;;4995701;28;22244;-51
2022/05/21 06:38:37;;;;;;;5.88;0.95;;;14.40;99.90;;;;;;5001549;28;20500;-49
2022/05/21 06:41:03;;;;;;;9.45;1.52;;;14.50;99.90;;;;;;5001605;28;20440;-54
2022/05/21 06:43:29;;;;;;;10.65;1.58;;;14.40;99.90;;;;;;5005606;28;20092;-54
2022/05/21 06:45:54;;;;;;;5.35;0.90;;;14.40;99.90;;;;;;5002675;28;20502;-53
2022/05/21 06:48:20;;;;;;;10.02;1.13;;;14.40;99.90;;;;;;5004590;28;20033;-52
2022/05/21 06:50:47;;;;;;;8.23;1.23;;;14.50;99.90;;;;;;4970774;28;20064;-53
2022/05/21 06:53:12;;;;;;;7.32;1.48;;;14.50;99.90;;;;;;5002640;28;20038;-53
2022/05/21 06:55:39;;;;;;;5.90;1.40;;;14.50;99.90;;;;;;5003682;28;20054;-55
2022/05/21 06:58:05;;;;;;;9.90;2.20;;;14.50;99.90;;;;;;4999911;28;20046;-52
2022/05/21 07:00:31;;;;;;;7.20;1.40;;;14.60;99.90;;;;;;4999972;28;20361;-53
2022/05/21 07:02:57;;;;;;;7.20;1.17;;;14.70;99.90;;;;;;5002904;28;20111;-53
2022/05/21 07:08:19;;;;;;;5.57;1.27;;;14.90;99.90;;;;;;5003380;28;20089;-53
2022/05/21 07:10:48;;;;;;;9.40;1.30;;;15.00;99.90;;;;;;5000836;28;20487;-54
2022/05/21 07:13:15;;;;;;;9.57;1.42;;;15.00;99.90;;;;;;5003396;28;20494;-55
2022/05/21 07:15:42;;;;;;;10.23;2.00;;;15.00;99.90;;;;;;5006519;28;20041;-53
2022/05/21 07:18:07;;;;;;;7.40;1.27;;;15.00;99.90;;;;;;5004564;28;20121;-54
2022/05/21 07:20:33;;;;;;;6.90;1.63;;;15.00;99.90;;;;;;4989240;28;20136;-54
2022/05/21 07:23:00;;;;;;;11.85;1.15;;;14.90;99.90;;;;;;5010181;28;20042;-54
2022/05/21 07:25:29;;;;;;;8.07;1.17;;;15.00;99.90;;;;;;5005872;28;20457;-50
2022/05/21 07:27:55;;;;;;;4.70;0.98;;;15.10;99.90;;;;;;5005848;28;20084;-56
2022/05/21 07:30:21;;;;;;;9.30;1.48;;;15.20;99.90;;;;;;5006543;28;20460;-50
2022/05/21 07:32:50;;;;;;;12.00;1.63;;;15.20;99.90;;;;;;5002470;28;20071;-54
2022/05/21 07:35:18;;;;;;;7.10;1.40;;;15.20;99.90;;;;;;5005895;28;20108;-53
2022/05/21 07:37:44;;;;;;;6.60;1.10;;;15.20;99.90;;;;;;5009034;28;20145;-55
2022/05/21 07:40:11;;;;;;;7.15;0.82;;;15.10;99.90;;;;;;5010762;28;20124;-52
2022/05/21 07:42:37;;;;;;;7.53;1.30;;;15.00;99.90;;;;;;5008541;28;20068;-53
2022/05/21 07:45:05;;;;;;;6.75;1.10;;;15.00;99.90;;;;;;5006093;28;20588;-48
2022/05/21 07:47:30;;;;;;;9.18;1.30;;;15.00;99.90;;;;;;5005676;28;20030;-53
2022/05/21 07:49:56;;;;;;;5.43;1.00;;;15.00;99.90;;;;;;5007787;28;20067;-53
2022/05/21 07:52:27;;;;;;;8.63;1.77;;;15.20;99.90;;;;;;5008135;28;20486;-54
2022/05/21 07:54:53;;;;;;;6.07;1.10;;;15.30;99.90;;;;;;5007998;28;20487;-54
2022/05/21 07:57:19;;;;;;;6.43;1.00;;;15.50;99.90;;;;;;5006506;28;20048;-50
2022/05/21 07:59:45;;;;;;;8.35;1.25;;;15.60;99.90;;;;;;5004612;28;20065;-54
2022/05/21 08:02:15;;;;;;;6.72;1.38;;;15.70;99.90;;;;;;5004763;28;20163;-50
2022/05/21 08:04:42;;;;;;;8.57;1.15;;;15.70;99.90;;;;;;5002632;28;20517;-54
2022/05/21 08:07:08;;;;;;;7.43;1.23;;;15.60;99.90;;;;;;5002125;28;20041;-54
2022/05/21 08:09:34;;;;;;;4.80;0.70;;;15.60;99.90;;;;;;4985077;28;20545;-54
2022/05/21 08:12:00;;;;;;;5.47;0.77;;;15.70;99.90;;;;;;5009498;28;20042;-55
2022/05/21 08:14:25;;;;;;;8.10;1.67;;;15.90;99.90;;;;;;5003925;28;20372;-54
2022/05/21 08:16:51;;;;;;;4.78;0.90;;;15.90;99.90;;;;;;5007810;28;20136;-50
2022/05/21 08:19:17;;;;;;;5.30;1.20;;;15.90;99.90;;;;;;5004050;28;20539;-54
2022/05/21 08:21:43;;;;;;;4.30;0.80;;;16.00;99.90;;;;;;5005502;28;20130;-54
2022/05/21 08:26:56;;;;;;;6.90;0.90;;;15.80;99.90;;;;;;5004141;28;20083;-49
2022/05/21 08:29:29;;;;;;;10.80;1.30;;;15.70;99.90;;;;;;5002965;28;20057;-53
2022/05/21 08:31:55;;;;;;;5.57;0.95;;;15.90;99.90;;;;;;5003952;28;20049;-51
2022/05/21 08:34:23;;;;;;;4.18;1.00;;;16.10;99.90;;;;;;4988762;28;20448;-51
2022/05/21 08:36:48;;;;;;;6.88;1.02;;;16.00;99.90;;;;;;5004262;28;20054;-53
2022/05/21 08:39:16;;;;;;;6.63;0.95;;;15.90;99.90;;;;;;5005758;28;20042;-53
2022/05/21 08:42:04;;;;;;;7.03;1.33;;;16.00;99.90;;;;;;4982449;28;20049;-50
2022/05/21 08:44:46;;;;;;;4.43;1.10;;;16.10;99.90;;;;;;5000473;28;20049;-48
2022/05/21 08:47:18;;;;;;;;;;;16.30;99.90;;;;;;4985957;28;20125;-54
2022/05/21 08:50:01;;;;;;;4.82;1.00;;;16.40;99.90;;;;;;5006321;28;20317;-51
2022/05/21 08:52:42;;;;;;;3.28;0.80;;;16.40;99.90;;;;;;4989451;28;20061;-51
2022/05/21 08:55:12;;;;;;;7.80;0.85;;;16.50;99.60;;;;;;5001630;28;20065;-54
2022/05/21 08:57:51;;;;;;;6.75;1.05;;;16.50;99.90;;;;;;5006101;28;20165;-51
2022/05/21 09:00:23;;;;;;;6.28;1.10;;;16.60;99.30;;;;;;5003837;28;20060;-51
2022/05/21 09:02:50;;;;;;;;;;;16.50;99.50;;;;;;5003596;28;20046;-53
2022/05/21 09:05:21;;;;;;;3.13;0.90;;;16.40;99.80;;;;;;5003116;28;20577;-48
2022/05/21 09:08:02;;;;;;;3.63;0.80;;;16.50;99.90;;;;;;4986714;28;20408;-51
2022/05/21 09:10:31;;;;;;;7.05;1.08;;;16.60;99.50;;;;;;5006066;28;20044;-46
2022/05/21 09:13:14;;;;;;;5.57;0.85;;;16.70;99.80;;;;;;5000210;28;20121;-46
2022/05/21 09:18:29;;;;;;;6.88;0.95;;;16.70;98.90;;;;;;5007805;28;20099;-53
2022/05/21 09:21:00;;;;;;;6.30;0.95;;;16.70;99.70;;;;;;5007854;28;20755;-54
2022/05/21 09:24:11;;;;;;;5.88;0.73;;;16.50;99.20;;;;;;4985737;28;20490;-58
2022/05/21 09:26:50;;;;;;;7.47;1.00;;;16.40;98.90;;;;;;5002112;28;20041;-54
2022/05/21 09:29:28;;;;;;;3.63;1.08;;;16.50;99.70;;;;;;5006370;28;20080;-53
2022/05/21 09:31:55;;;;;;;4.55;0.68;;;16.70;99.70;;;;;;5003534;28;20434;-54
2022/05/21 09:34:33;;;;;;;6.85;1.05;;;16.90;98.90;;;;;;5006585;28;20041;-54
2022/05/21 09:37:01;;;;;;;6.95;1.02;;;17.00;97.90;;;;;;5004104;28;20045;-45
2022/05/21 09:39:40;;;;;;;5.70;1.17;;;17.00;98.40;;;;;;5000527;28;20486;-52
2022/05/21 09:42:07;;;;;;;6.55;1.17;;;17.00;97.60;;;;;;4985737;28;20052;-54
2022/05/21 09:47:23;;;;;;;7.95;1.27;;;16.70;98.50;;;;;;4984494;28;20069;-53
2022/05/21 09:50:01;;;;;;;7.22;1.10;;;16.50;98.60;;;;;;5002162;28;20087;-55
2022/05/21 09:52:30;;;;;;;4.50;1.38;;;16.60;98.70;;;;;;5001848;28;20061;-54
2022/05/21 09:54:55;;;;;;;5.13;1.17;;;16.90;98.40;;;;;;5005905;28;20053;-56
2022/05/21 09:57:27;;;;;;;4.10;0.90;;;17.20;97.60;;;;;;5004345;28;20046;-56
2022/05/21 10:00:16;;;;;;;7.37;1.10;;;17.30;96.60;;;;;;5004275;28;20658;-53
2022/05/21 10:02:48;;;;;;;4.80;1.33;;;17.10;96.00;;;;;;4999718;28;20766;-50
2022/05/21 10:05:20;;;;;;;5.53;0.77;;;17.00;96.60;;;;;;4995862;28;20042;-54
2022/05/21 10:11:02;;;;;;;4.53;0.60;;;17.10;96.30;;;;;;4918740;28;20047;-55
2022/05/21 10:13:43;;;;;;;4.60;0.65;;;17.30;95.40;;;;;;4986315;28;20506;-54
2022/05/21 10:16:21;;;;;;;6.28;0.70;;;17.50;95.10;;;;;;4984795;28;20068;-52
2022/05/21 10:19:04;;;;;;;4.95;0.82;;;17.50;93.70;;;;;;4982024;28;20145;-54
2022/05/21 10:21:38;;;;;;;5.60;0.70;;;17.30;94.20;;;;;;4987616;28;20042;-51
2022/05/21 10:24:36;;;;;;;3.75;0.80;;;17.40;94.40;;;;;;4984475;28;20130;-54
2022/05/21 10:27:09;;;;;;;6.40;1.10;;;17.50;93.70;;;;;;4974545;28;20053;-50
2022/05/21 10:29:57;;;;;;;7.45;0.98;;;17.70;93.70;;;;;;4996273;28;20475;-52
2022/05/21 10:32:25;;;;;;;6.85;1.00;;;17.60;92.40;;;;;;5000777;28;20046;-54
2022/05/21 10:35:25;;;;;;;6.47;1.10;;;17.40;91.30;;;;;;5002130;28;20156;-54
2022/05/21 10:38:29;;;;;;;6.60;1.35;;;17.40;91.80;;;;;;5003901;28;20046;-55
2022/05/21 10:41:23;;;;;;;6.78;0.93;;;17.40;92.50;;;;;;4997047;28;20041;-55
2022/05/21 10:44:13;;;;;;;5.05;0.60;;;17.60;90.90;;;;;;5003232;28;20034;-53
2022/05/21 10:46:51;;;;;;;4.45;0.93;;;17.60;91.40;;;;;;5002173;28;20045;-50
2022/05/21 10:49:49;;;;;;;3.97;1.00;;;17.40;88.70;;;;;;5005052;28;20458;-52
2022/05/21 10:52:48;;;;;;;4.00;0.63;;;17.30;90.90;;;;;;4995610;28;20152;-49
2022/05/21 10:55:26;;;;;;;5.38;0.93;;;17.30;91.00;;;;;;5002837;28;20053;-57
2022/05/21 10:58:07;;;;;;;3.33;0.73;;;17.40;89.70;;;;;;5006049;28;20418;-52
2022/05/21 11:00:38;;;;;;;7.32;0.70;;;17.40;89.80;;;;;;5007241;28;20484;-53
2022/05/21 11:03:30;;;;;;;3.13;0.70;;;17.50;86.60;;;;;;5009012;28;20723;-56
2022/05/21 11:06:04;;;;;;;8.57;1.05;;;17.60;87.60;;;;;;5008175;28;20034;-55
2022/05/21 11:08:35;;;;;;;2.75;0.60;;;17.80;87.90;;;;;;5011600;28;20038;-56
2022/05/21 11:11:08;;;;;;;6.03;0.75;;;17.80;86.00;;;;;;5006754;28;20514;-55
2022/05/21 11:13:43;;;;;;;4.57;0.77;;;17.70;85.90;;;;;;5004051;28;20659;-56
2022/05/21 11:16:17;;;;;;;10.57;1.02;;;17.70;86.30;;;;;;5009414;28;20243;-54
2022/05/21 11:19:00;;;;;;;5.38;0.73;;;17.70;87.40;;;;;;5012162;28;20033;-53
2022/05/21 11:21:39;;;;;;;7.35;0.80;;;17.70;90.10;;;;;;5008164;28;20056;-55
2022/05/21 11:24:08;;;;;;;4.55;0.80;;;17.70;89.90;;;;;;5013657;28;20080;-55
2022/05/21 11:26:48;;;;;;;9.23;1.00;;;17.70;88.70;;;;;;4998934;28;20065;-55
2022/05/21 11:29:37;;;;;;;5.90;1.13;;;17.60;89.40;;;;;;5008781;28;20045;-55
2022/05/21 11:37:44;;;;;;;6.35;1.05;;;17.50;90.40;;;;;;5005071;28;20052;-53
2022/05/21 11:40:49;;;;;;;5.13;0.82;;;17.60;90.40;;;;;;5005797;28;20046;-53
2022/05/21 11:43:15;;;;;;;7.45;1.10;;;17.60;90.50;;;;;;5006375;28;20046;-56
2022/05/21 11:45:41;;;;;;;9.32;1.15;;;17.60;90.70;;;;;;5002301;28;20490;-56
2022/05/21 11:48:22;;;;;;;5.22;0.80;;;17.60;89.10;;;;;;5008262;28;20036;-53
2022/05/21 11:51:16;;;;;;;6.88;1.30;;;17.60;89.50;;;;;;5002385;28;20068;-56
2022/05/21 11:53:42;;;;;;;4.97;0.85;;;17.70;88.90;;;;;;5004572;28;20088;-55
2022/05/21 11:56:13;;;;;;;7.25;1.02;;;17.80;90.40;;;;;;4991175;28;20050;-52
2022/05/21 11:58:57;;;;;;;5.78;1.10;;;17.80;88.80;;;;;;4983790;28;20402;-50
2022/05/21 12:01:41;;;;;;;6.93;0.93;;;17.70;87.70;;;;;;5004030;28;20080;-52
2022/05/21 12:04:35;;;;;;;5.63;0.80;;;17.70;90.00;;;;;;5006410;28;20068;-55
2022/05/21 12:07:02;;;;;;;7.40;1.23;;;17.80;90.00;;;;;;5002150;28;20038;-56
2022/05/21 12:09:31;;;;;;;4.70;1.15;;;17.90;87.80;;;;;;5004067;28;20312;-53
2022/05/21 12:12:18;;;;;;;7.43;1.30;;;18.10;88.30;;;;;;5005506;28;20268;-51
2022/05/21 12:14:53;;;;;;;4.45;1.02;;;18.50;88.00;;;;;;5001277;28;20125;-55
2022/05/21 12:17:51;;;;;;;7.95;0.90;;;18.60;87.20;;;;;;5001337;28;20054;-52
2022/05/21 12:20:43;;;;;;;6.60;1.08;;;18.60;83.30;;;;;;4985225;28;20042;-55
2022/05/21 12:23:35;;;;;;;7.32;1.10;;;18.40;84.70;;;;;;5002068;28;20068;-49
2022/05/21 12:26:04;;;;;;;7.32;0.90;;;18.20;85.90;;;;;;5005231;28;20117;-54
2022/05/21 12:29:00;;;;;;;5.13;1.30;;;18.30;89.70;;;;;;5001820;28;20038;-56
2022/05/21 12:31:37;;;;;;;7.60;1.17;;;18.30;88.30;;;;;;5003480;28;20085;-57
2022/05/21 12:34:40;;;;;;;6.28;1.10;;;18.30;86.80;;;;;;5004947;28;20045;-51
2022/05/21 12:37:26;;;;;;;6.60;1.45;;;18.20;88.00;;;;;;5003246;28;20073;-52
2022/05/21 12:40:03;;;;;;;6.72;1.15;;;18.40;87.60;;;;;;5006509;28;20049;-58
2022/05/21 12:42:42;;;;;;;6.85;1.98;;;18.40;88.30;;;;;;5004623;28;20041;-57
2022/05/21 12:45:09;;;;;;;3.78;1.10;;;18.40;89.20;;;;;;5007735;28;20216;-54
2022/05/21 12:47:38;;;;;;;7.43;1.08;;;18.30;89.60;;;;;;5008199;28;20046;-57
2022/05/21 12:50:14;;;;;;;6.43;1.30;;;18.20;89.00;;;;;;5006705;28;20125;-53
2022/05/21 12:53:09;;;;;;;6.03;1.08;;;18.00;88.30;;;;;;5007142;28;20041;-58
2022/05/21 12:55:35;;;;;;;6.13;1.00;;;17.90;88.80;;;;;;4992600;28;20053;-55
2022/05/21 12:58:08;;;;;;;4.45;1.25;;;17.90;90.00;;;;;;5008104;28;20041;-57
2022/05/21 13:00:34;;;;;;;6.07;1.17;;;18.00;88.70;;;;;;5001971;28;20050;-57
2022/05/21 13:03:06;;;;;;;7.82;1.70;;;18.30;90.30;;;;;;4987990;28;20053;-57
2022/05/21 13:05:38;;;;;;;5.88;1.10;;;18.50;86.60;;;;;;5001823;28;20034;-57
2022/05/21 13:08:05;;;;;;;8.50;1.27;;;18.30;86.10;;;;;;5003260;28;20445;-57
2022/05/21 13:10:34;;;;;;;5.25;1.00;;;18.00;85.90;;;;;;4971595;28;20046;-58
2022/05/21 13:13:21;;;;;;;7.22;1.20;;;17.90;87.90;;;;;;5010765;28;20034;-57
2022/05/21 13:15:52;;;;;;;3.55;0.80;;;17.90;89.40;;;;;;4999615;28;20117;-58
2022/05/21 13:18:36;;;;;;;5.32;0.90;;;17.90;90.10;;;;;;5004088;28;20037;-54
2022/05/21 13:21:23;;;;;;;7.65;1.35;;;18.10;90.20;;;;;;5002255;28;20092;-58
2022/05/21 13:24:13;;;;;;;5.28;1.48;;;18.60;89.20;;;;;;5000306;28;20042;-55
2022/05/21 13:26:40;;;;;;;10.43;1.20;;;18.70;82.10;;;;;;5002016;28;20057;-54
2022/05/21 13:29:25;;;;;;;4.97;1.00;;;18.60;82.30;;;;;;4999992;28;20509;-58
2022/05/21 13:31:52;;;;;;;6.30;1.45;;;18.60;82.70;;;;;;5002465;28;20558;-58
2022/05/21 13:34:26;;;;;;;5.65;0.90;;;18.60;85.90;;;;;;5003230;28;20083;-59
2022/05/21 13:36:59;;;;;;;5.32;1.02;;;18.90;84.70;;;;;;5005094;28;20066;-55